createdAt,value
2023-04-07T00:01:38.922Z,100068.56
2023-04-07T00:04:07.363Z,100066.11
2023-04-07T00:06:40.777Z,100064.53
2023-04-07T00:09:16.023Z,100062.77
2023-04-07T00:12:03.238Z,100060.35
2023-04-07T00:14:31.726Z,100056.02
2023-04-07T00:17:00.417Z,100054.48
2023-04-07T00:19:33.814Z,100055.14
2023-04-07T00:22:04.823Z,100047.66
2023-04-07T00:24:34.612Z,100050.91
2023-04-07T00:27:06.011Z,100050.89
2023-04-07T00:29:34.624Z,100047.59
2023-04-07T00:32:08.740Z,100048.95
2023-04-07T00:34:46.210Z,100048.10
2023-04-07T00:37:17.769Z,100043.23
2023-04-07T00:39:46.909Z,100039.23
2023-04-07T00:42:22.363Z,100039.58
2023-04-07T00:44:50.664Z,100038.33
2023-04-07T00:47:21.334Z,100034.82
2023-04-07T00:49:50.055Z,100033.41
2023-04-07T00:52:27.000Z,100035.31
2023-04-07T00:55:12.275Z,100034.09
2023-04-07T00:57:46.957Z,100032.86
2023-04-07T01:00:15.720Z,100029.70
2023-04-07T01:02:52.658Z,100028.45
2023-04-07T01:05:30.602Z,100026.71
2023-04-07T01:08:33.757Z,100029.12
2023-04-07T01:11:11.154Z,100028.98
2023-04-07T01:13:48.782Z,100027.80
2023-04-07T01:16:41.985Z,100027.04
2023-04-07T01:19:20.905Z,100026.73
2023-04-07T01:21:52.533Z,100025.05
2023-04-07T01:24:46.917Z,100021.30
2023-04-07T01:27:44.039Z,100018.73
2023-04-07T01:30:16.347Z,100019.09
2023-04-07T01:32:50.496Z,100021.02
2023-04-07T01:35:20.442Z,100016.92
2023-04-07T01:37:50.780Z,100022.69
2023-04-07T01:40:25.834Z,100018.88
2023-04-07T01:43:20.620Z,100021.64
2023-04-07T01:45:50.543Z,100017.64
2023-04-07T01:48:22.432Z,100012.81
2023-04-07T01:50:54.497Z,100015.04
2023-04-07T01:53:24.432Z,100011.21
2023-04-07T01:55:54.979Z,100012.23
2023-04-07T01:58:23.350Z,100009.05
2023-04-07T02:01:03.843Z,100007.05
2023-04-07T02:03:49.874Z,100009.29
2023-04-07T02:06:22.571Z,100007.64
2023-04-07T02:08:58.938Z,100007.45
2023-04-07T02:11:33.039Z,100012.63
2023-04-07T02:14:02.780Z,100007.78
2023-04-07T02:16:32.071Z,100009.01
2023-04-07T02:19:04.061Z,100004.52
2023-04-07T02:21:40.936Z,100003.67
2023-04-07T02:24:12.736Z,100007.31
2023-04-07T02:26:44.656Z,99999.17
2023-04-07T02:29:16.198Z,99997.94
2023-04-07T02:31:44.567Z,99998.30
2023-04-07T02:34:13.360Z,99994.98
2023-04-07T02:36:41.792Z,99996.42
2023-04-07T02:39:10.872Z,99994.00
2023-04-07T02:41:39.149Z,99991.95
2023-04-07T02:44:16.666Z,99987.33
2023-04-07T02:46:47.972Z,99990.62
2023-04-07T02:49:16.528Z,99985.90
2023-04-07T02:51:47.133Z,99986.21
2023-04-07T02:54:25.718Z,99981.18
2023-04-07T02:56:54.023Z,99980.65
2023-04-07T02:59:25.160Z,99974.06
2023-04-07T03:01:53.527Z,99971.16
2023-04-07T03:04:24.414Z,99972.36
2023-04-07T03:06:53.278Z,99969.72
2023-04-07T03:09:21.582Z,99970.73
2023-04-07T03:11:57.263Z,99968.41
2023-04-07T03:14:26.083Z,99963.52
2023-04-07T03:16:54.972Z,99962.44
2023-04-07T03:19:35.632Z,99962.74
2023-04-07T03:22:04.215Z,99960.61
2023-04-07T03:24:32.782Z,99956.77
2023-04-07T03:27:02.571Z,99955.88
2023-04-07T03:29:42.399Z,99952.05
2023-04-07T03:32:10.545Z,99950.83
2023-04-07T03:34:46.490Z,99948.77
2023-04-07T03:37:14.810Z,99947.33
2023-04-07T03:39:50.301Z,99943.95
2023-04-07T03:42:24.654Z,99947.23
2023-04-07T03:45:04.860Z,99945.88
2023-04-07T03:47:33.834Z,99943.15
2023-04-07T03:50:02.848Z,99945.54
2023-04-07T03:52:34.079Z,99950.20
2023-04-07T03:55:02.256Z,99947.05
2023-04-07T03:57:54.383Z,99946.18
2023-04-07T04:00:49.985Z,99947.96
2023-04-07T04:03:19.208Z,99946.30
2023-04-07T04:05:47.670Z,99943.23
2023-04-07T04:08:18.955Z,99942.94
2023-04-07T04:10:47.542Z,99943.48
2023-04-07T04:13:19.053Z,99942.98
2023-04-07T04:15:47.597Z,99940.94
2023-04-07T04:18:16.611Z,99942.23
2023-04-07T04:20:44.873Z,99944.36
2023-04-07T04:23:13.128Z,99946.31
2023-04-07T04:25:41.778Z,99946.54
2023-04-07T04:28:10.592Z,99944.85
2023-04-07T04:30:49.662Z,99948.34
2023-04-07T04:33:37.964Z,99946.77
2023-04-07T04:36:26.767Z,99944.91
2023-04-07T04:38:57.839Z,99943.70
2023-04-07T04:41:33.523Z,99945.21
2023-04-07T04:44:01.984Z,99941.21
2023-04-07T04:46:33.597Z,99940.13
2023-04-07T04:49:02.170Z,99937.99
2023-04-07T04:51:30.455Z,99936.25
2023-04-07T04:54:01.595Z,99940.94
2023-04-07T04:56:32.958Z,99939.92
2023-04-07T04:59:06.555Z,99935.05
2023-04-07T05:01:35.026Z,99933.27
2023-04-07T05:04:11.504Z,99927.88
2023-04-07T05:06:39.816Z,99923.69
2023-04-07T05:09:08.159Z,99925.70
2023-04-07T05:11:45.683Z,99930.21
2023-04-07T05:14:14.312Z,99930.69
2023-04-07T05:16:42.655Z,99927.72
2023-04-07T05:19:14.244Z,99928.70
2023-04-07T05:21:45.800Z,99929.19
2023-04-07T05:24:14.222Z,99927.83
2023-04-07T05:26:54.403Z,99928.00
2023-04-07T05:29:23.836Z,99927.48
2023-04-07T05:31:52.006Z,99926.30
2023-04-07T05:34:20.490Z,99929.77
2023-04-07T05:36:48.686Z,99930.27
2023-04-07T05:39:22.811Z,99927.82
2023-04-07T05:41:52.408Z,99935.63
2023-04-07T05:44:39.893Z,99935.30
2023-04-07T05:47:09.354Z,99935.96
2023-04-07T05:49:37.782Z,99938.62
2023-04-07T05:52:09.170Z,99937.23
2023-04-07T05:54:37.386Z,99940.89
2023-04-07T05:57:33.228Z,99936.36
2023-04-07T06:00:23.894Z,99942.39
2023-04-07T06:02:52.300Z,99942.06
2023-04-07T06:05:21.425Z,99944.99
2023-04-07T06:07:49.853Z,99941.17
2023-04-07T06:10:18.278Z,99941.33
2023-04-07T06:12:46.901Z,99944.55
2023-04-07T06:15:15.183Z,99944.69
2023-04-07T06:17:45.846Z,99945.00
2023-04-07T06:20:14.239Z,99947.81
2023-04-07T06:22:42.461Z,99945.69
2023-04-07T06:25:10.806Z,99944.77
2023-04-07T06:27:39.423Z,99945.94
2023-04-07T06:30:08.689Z,99947.16
2023-04-07T06:32:37.054Z,99948.17
2023-04-07T06:35:05.788Z,99947.98
2023-04-07T06:37:34.036Z,99946.78
2023-04-07T06:40:02.367Z,99944.88
2023-04-07T06:42:31.037Z,99943.75
2023-04-07T06:44:59.286Z,99944.60
2023-04-07T06:47:28.439Z,99945.84
2023-04-07T06:49:56.933Z,99942.04
2023-04-07T06:52:25.494Z,99946.70
2023-04-07T06:54:54.167Z,99945.98
2023-04-07T06:57:25.164Z,99949.67
2023-04-07T06:59:53.598Z,99954.34
2023-04-07T07:02:22.076Z,99953.30
2023-04-07T07:04:51.350Z,99954.29
2023-04-07T07:07:19.851Z,99952.52
2023-04-07T07:09:48.331Z,99956.44
2023-04-07T07:12:18.307Z,99956.56
2023-04-07T07:15:08.317Z,99956.92
2023-04-07T07:17:44.130Z,99960.73
2023-04-07T07:20:12.875Z,99956.98
2023-04-07T07:22:41.767Z,99960.81
2023-04-07T07:25:10.531Z,99962.35
2023-04-07T07:27:39.926Z,99966.31
2023-04-07T07:30:17.425Z,99968.96
2023-04-07T07:32:46.742Z,99970.59
2023-04-07T07:35:15.600Z,99969.35
2023-04-07T07:38:07.488Z,99970.48
2023-04-07T07:40:35.916Z,99975.31
2023-04-07T07:43:04.116Z,99974.81
2023-04-07T07:45:32.330Z,99975.48
2023-04-07T07:48:01.153Z,99981.52
2023-04-07T07:50:35.295Z,99984.12
2023-04-07T07:53:03.479Z,99988.44
2023-04-07T07:55:31.733Z,99989.11
2023-04-07T07:58:00.336Z,99991.45
2023-04-07T08:00:29.124Z,99987.00
2023-04-07T08:02:57.438Z,99985.36
2023-04-07T08:05:26.465Z,99974.56
2023-04-07T08:07:55.721Z,99973.13
2023-04-07T08:10:25.611Z,99973.46
2023-04-07T08:12:53.800Z,99973.98
2023-04-07T08:15:22.039Z,99977.98
2023-04-07T08:17:50.504Z,99977.62
2023-04-07T08:20:19.653Z,99979.91
2023-04-07T08:22:48.951Z,99973.73
2023-04-07T08:25:26.153Z,99975.27
2023-04-07T08:27:55.755Z,99972.83
2023-04-07T08:30:32.682Z,99972.83
2023-04-07T08:33:01.649Z,99978.21
2023-04-07T08:35:30.120Z,99977.52
2023-04-07T08:37:58.769Z,99981.94
2023-04-07T08:40:27.378Z,99980.65
2023-04-07T08:42:58.297Z,99974.61
2023-04-07T08:45:27.084Z,99971.09
2023-04-07T08:47:59.670Z,99972.80
2023-04-07T08:50:29.043Z,99969.25
2023-04-07T08:53:00.917Z,99971.71
2023-04-07T08:55:29.342Z,99974.45
2023-04-07T08:58:00.126Z,99975.62
2023-04-07T09:00:30.516Z,99977.38
2023-04-07T09:03:01.185Z,99973.52
2023-04-07T09:05:31.095Z,99971.75
2023-04-07T09:07:59.517Z,99969.23
2023-04-07T09:10:27.638Z,99964.23
2023-04-07T09:12:58.587Z,99960.41
2023-04-07T09:15:31.290Z,99961.19
2023-04-07T09:17:59.811Z,99965.98
2023-04-07T09:20:28.250Z,99963.22
2023-04-07T09:22:56.938Z,99963.34
2023-04-07T09:25:29.974Z,99963.64
2023-04-07T09:28:25.898Z,99963.64
2023-04-07T09:30:55.909Z,99962.27
2023-04-07T09:33:43.260Z,99965.69
2023-04-07T09:36:12.590Z,99964.73
2023-04-07T09:38:42.139Z,99956.98
2023-04-07T09:41:17.759Z,99954.84
2023-04-07T09:43:47.825Z,99957.30
2023-04-07T09:46:19.313Z,99962.27
2023-04-07T09:48:48.744Z,99963.73
2023-04-07T09:51:18.077Z,99965.11
2023-04-07T09:53:51.956Z,99963.89
2023-04-07T09:56:25.164Z,99966.13
2023-04-07T09:58:53.490Z,99965.98
2023-04-07T10:01:22.379Z,99965.07
2023-04-07T10:03:51.805Z,99965.77
2023-04-07T10:06:20.856Z,99976.52
2023-04-07T10:08:49.326Z,99977.06
2023-04-07T10:11:18.242Z,99976.77
2023-04-07T10:13:47.112Z,99974.70
2023-04-07T10:16:16.185Z,99974.86
2023-04-07T10:18:53.662Z,99975.75
2023-04-07T10:21:23.372Z,99973.30
2023-04-07T10:24:43.422Z,99974.84
2023-04-07T10:27:19.820Z,99976.63
2023-04-07T10:29:58.700Z,99978.42
2023-04-07T10:32:52.006Z,99975.45
2023-04-07T10:35:22.373Z,99972.86
2023-04-07T10:38:08.823Z,99972.91
2023-04-07T10:40:38.583Z,99974.85
2023-04-07T10:43:09.813Z,99976.48
2023-04-07T10:45:52.551Z,99977.05
2023-04-07T10:48:33.257Z,99979.85
2023-04-07T10:51:08.609Z,99977.95
2023-04-07T10:53:37.171Z,99979.01
2023-04-07T10:56:06.072Z,99979.70
2023-04-07T10:58:35.113Z,99982.16
2023-04-07T11:01:41.892Z,99981.11
2023-04-07T11:04:10.356Z,99984.88
2023-04-07T11:06:48.324Z,99983.11
2023-04-07T11:09:29.021Z,99984.11
2023-04-07T11:11:57.934Z,99983.73
2023-04-07T11:14:28.581Z,99982.92
2023-04-07T11:16:57.162Z,99982.11
2023-04-07T11:19:25.598Z,99980.99
2023-04-07T11:22:32.960Z,99981.15
2023-04-07T11:25:01.526Z,99982.80
2023-04-07T11:27:31.894Z,99981.30
2023-04-07T11:30:01.075Z,99981.27
2023-04-07T11:32:30.221Z,99978.13
2023-04-07T11:34:59.413Z,99974.70
2023-04-07T11:37:29.177Z,99978.56
2023-04-07T11:39:59.143Z,99975.13
2023-04-07T11:42:40.501Z,99975.58
2023-04-07T11:45:22.407Z,99974.72
2023-04-07T11:47:51.338Z,99972.13
2023-04-07T11:50:40.142Z,99968.22
2023-04-07T11:53:09.314Z,99970.08
2023-04-07T11:55:37.558Z,99967.34
2023-04-07T11:58:07.073Z,99963.80
2023-04-07T12:00:35.498Z,99964.88
2023-04-07T12:03:14.631Z,99964.31
2023-04-07T12:05:46.848Z,99965.02
2023-04-07T12:08:19.134Z,99964.69
2023-04-07T12:10:48.422Z,99963.79
2023-04-07T12:13:19.904Z,99960.08
2023-04-07T12:15:48.398Z,99961.94
2023-04-07T12:18:18.474Z,99959.86
2023-04-07T12:20:46.854Z,99959.36
2023-04-07T12:23:15.097Z,99961.10
2023-04-07T12:25:43.288Z,99958.20
2023-04-07T12:28:11.789Z,99956.96
2023-04-07T12:30:39.932Z,99952.25
2023-04-07T12:33:11.400Z,99950.88
2023-04-07T12:35:39.479Z,99953.83
2023-04-07T12:38:16.692Z,99952.06
2023-04-07T12:40:44.938Z,99951.14
2023-04-07T12:43:13.806Z,99951.48
2023-04-07T12:45:50.859Z,99948.49
2023-04-07T12:48:22.396Z,99951.54
2023-04-07T12:50:50.530Z,99948.28
2023-04-07T12:53:18.853Z,99946.20
2023-04-07T12:55:50.225Z,99951.32
2023-04-07T12:58:19.376Z,99953.30
2023-04-07T13:00:47.930Z,99957.88
2023-04-07T13:03:17.049Z,99959.34
2023-04-07T13:05:45.564Z,99954.86
2023-04-07T13:08:14.714Z,99954.92
2023-04-07T13:10:43.138Z,99952.70
2023-04-07T13:13:11.719Z,99951.66
2023-04-07T13:15:42.847Z,99953.48
2023-04-07T13:18:22.044Z,99953.90
2023-04-07T13:21:02.921Z,99952.27
2023-04-07T13:23:43.219Z,99947.58
2023-04-07T13:26:12.287Z,99947.66
2023-04-07T13:28:41.726Z,99948.23
2023-04-07T13:31:12.051Z,99945.23
2023-04-07T13:33:41.442Z,99944.13
2023-04-07T13:36:10.495Z,99940.73
2023-04-07T13:38:38.803Z,99942.72
2023-04-07T13:41:38.522Z,99939.91
2023-04-07T13:44:07.384Z,99937.30
2023-04-07T13:46:35.908Z,99932.14
2023-04-07T13:49:04.397Z,99934.11
2023-04-07T13:51:33.125Z,99932.11
2023-04-07T13:54:04.828Z,99927.39
2023-04-07T13:56:33.205Z,99928.98
2023-04-07T13:59:02.520Z,99928.80
2023-04-07T14:01:31.347Z,99931.70
2023-04-07T14:04:01.096Z,99930.01
2023-04-07T14:06:29.825Z,99929.36
2023-04-07T14:08:58.685Z,99927.70
2023-04-07T14:11:30.208Z,99924.90
2023-04-07T14:13:58.457Z,99923.41
2023-04-07T14:16:26.895Z,99923.23
2023-04-07T14:18:56.409Z,99922.20
2023-04-07T14:21:24.979Z,99919.09
2023-04-07T14:23:53.654Z,99920.84
2023-04-07T14:26:22.333Z,99923.38
2023-04-07T14:28:50.611Z,99925.17
2023-04-07T14:31:19.078Z,99923.55
2023-04-07T14:33:47.661Z,99922.88
2023-04-07T14:36:19.315Z,99920.23
2023-04-07T14:38:47.991Z,99923.48
2023-04-07T14:41:23.689Z,99922.98
2023-04-07T14:43:56.477Z,99923.65
2023-04-07T14:46:26.935Z,99923.06
2023-04-07T14:48:56.129Z,99925.43
2023-04-07T14:51:27.718Z,99927.33
2023-04-07T14:54:03.961Z,99927.81
2023-04-07T14:56:41.909Z,99926.64
2023-04-07T14:59:10.970Z,99926.89
2023-04-07T15:01:42.738Z,99925.34
2023-04-07T15:04:12.378Z,99922.69
2023-04-07T15:06:47.443Z,99923.87
2023-04-07T15:09:16.015Z,99923.47
2023-04-07T15:11:44.439Z,99918.89
2023-04-07T15:14:12.936Z,99919.69
2023-04-07T15:16:41.342Z,99919.46
2023-04-07T15:19:09.667Z,99917.54
2023-04-07T15:21:46.768Z,99919.23
2023-04-07T15:24:16.546Z,99911.95
2023-04-07T15:26:45.113Z,99914.56
2023-04-07T15:29:14.253Z,99914.41
2023-04-07T15:31:56.199Z,99912.79
2023-04-07T15:34:24.581Z,99916.01
2023-04-07T15:36:52.963Z,99916.52
2023-04-07T15:39:24.348Z,99915.70
2023-04-07T15:41:53.008Z,99915.16
2023-04-07T15:44:21.557Z,99916.02
2023-04-07T15:46:54.346Z,99912.80
2023-04-07T15:49:25.654Z,99916.17
2023-04-07T15:51:54.359Z,99917.08
2023-04-07T15:54:22.680Z,99915.66
2023-04-07T15:56:51.897Z,99914.60
2023-04-07T15:59:20.215Z,99916.67
2023-04-07T16:01:49.285Z,99917.89
2023-04-07T16:04:17.735Z,99913.91
2023-04-07T16:06:46.243Z,99916.86
2023-04-07T16:09:15.204Z,99919.60
2023-04-07T16:11:43.716Z,99923.73
2023-04-07T16:14:12.206Z,99922.41
2023-04-07T16:16:41.745Z,99925.23
2023-04-07T16:19:10.621Z,99929.09
2023-04-07T16:21:39.680Z,99926.42
2023-04-07T16:24:07.907Z,99927.95
2023-04-07T16:26:36.024Z,99930.70
2023-04-07T16:29:04.258Z,99929.99
2023-04-07T16:31:32.616Z,99934.65
2023-04-07T16:34:02.009Z,99934.98
2023-04-07T16:36:30.919Z,99937.42
2023-04-07T16:38:59.133Z,99939.86
2023-04-07T16:41:27.716Z,99941.08
2023-04-07T16:43:56.127Z,99943.53
2023-04-07T16:46:28.431Z,99943.71
2023-04-07T16:49:00.066Z,99946.45
2023-04-07T16:51:29.735Z,99947.77
2023-04-07T16:53:57.936Z,99947.75
2023-04-07T16:56:26.416Z,99951.67
2023-04-07T16:58:56.382Z,99946.80
2023-04-07T17:01:24.687Z,99952.19
2023-04-07T17:03:53.555Z,99953.77
2023-04-07T17:06:22.218Z,99957.30
2023-04-07T17:08:50.758Z,99961.66
2023-04-07T17:11:26.494Z,99965.17
2023-04-07T17:14:01.607Z,99960.00
2023-04-07T17:16:35.439Z,99959.13
2023-04-07T17:19:03.714Z,99964.90
2023-04-07T17:21:32.203Z,99967.52
2023-04-07T17:24:00.527Z,99968.55
2023-04-07T17:26:29.502Z,99966.45
2023-04-07T17:28:57.849Z,99965.07
2023-04-07T17:31:26.323Z,99969.38
2023-04-07T17:33:54.713Z,99971.47
2023-04-07T17:36:22.895Z,99970.11
2023-04-07T17:38:51.181Z,99973.25
2023-04-07T17:41:20.173Z,99970.64
2023-04-07T17:43:48.699Z,99970.11
2023-04-07T17:46:17.204Z,99971.33
2023-04-07T17:48:45.489Z,99971.70
2023-04-07T17:51:14.534Z,99972.78
2023-04-07T17:54:12.921Z,99970.90
2023-04-07T17:56:57.072Z,99975.05
2023-04-07T18:00:07.783Z,99973.98
2023-04-07T18:03:20.163Z,99977.13
2023-04-07T18:06:25.025Z,99978.16
2023-04-07T18:09:00.958Z,99982.67
2023-04-07T18:11:29.665Z,99982.98
2023-04-07T18:14:11.181Z,99985.23
2023-04-07T18:17:35.726Z,99985.22
2023-04-07T18:20:42.120Z,99985.73
2023-04-07T18:32:27.701Z,99988.40
2023-04-07T18:34:56.450Z,99992.56
2023-04-07T18:37:29.761Z,99994.12
2023-04-07T18:39:58.159Z,99997.09
2023-04-07T18:42:26.434Z,99999.02
2023-04-07T18:44:55.315Z,100000.39
2023-04-07T18:47:23.515Z,100002.79
2023-04-07T18:49:53.803Z,100002.24
2023-04-07T18:52:22.238Z,99999.45
2023-04-07T18:54:56.995Z,99999.81
2023-04-07T18:57:31.366Z,100001.36
2023-04-07T19:00:48.445Z,100001.36
2023-04-07T19:03:23.665Z,100000.87
2023-04-07T19:06:32.656Z,100002.47
2023-04-07T19:09:53.426Z,100004.16
2023-04-07T19:12:52.336Z,100005.88
2023-04-07T19:15:24.142Z,100000.48
2023-04-07T19:17:55.632Z,100000.83
2023-04-07T19:20:24.094Z,100001.30
2023-04-07T19:22:52.472Z,99997.96
2023-04-07T19:25:21.005Z,100001.08
2023-04-07T19:27:50.559Z,100004.41
2023-04-07T19:30:18.909Z,100004.28
2023-04-07T19:32:47.911Z,100004.11
2023-04-07T19:35:17.074Z,100005.17
2023-04-07T19:37:46.831Z,100005.35
2023-04-07T19:40:16.783Z,100005.83
2023-04-07T19:42:45.103Z,100007.86
2023-04-07T19:45:46.353Z,100006.30
2023-04-07T19:48:38.643Z,100003.02
2023-04-07T19:51:56.891Z,100001.65
2023-04-07T19:54:38.812Z,100005.33
2023-04-07T19:57:43.861Z,100002.21
2023-04-07T20:00:35.595Z,100001.69
2023-04-07T20:03:27.090Z,100002.59
2023-04-07T20:06:06.603Z,100000.48
2023-04-07T20:08:56.650Z,100005.33
2023-04-07T20:11:55.436Z,100008.09
2023-04-07T20:14:32.287Z,100002.52
2023-04-07T20:17:17.846Z,100005.30
2023-04-07T20:20:10.737Z,100007.73
2023-04-07T20:23:10.312Z,100008.08
2023-04-07T20:25:50.312Z,100012.91
2023-04-07T20:28:19.705Z,100011.70
2023-04-07T20:30:55.596Z,100012.34
2023-04-07T20:33:24.148Z,100005.90
2023-04-07T20:35:53.134Z,100008.46
2023-04-07T20:38:21.455Z,100007.98
2023-04-07T20:40:50.092Z,100009.05
2023-04-07T20:43:20.948Z,100008.02
2023-04-07T20:45:49.941Z,100008.01
2023-04-07T20:49:45.305Z,100004.52
2023-04-07T20:56:51.960Z,100004.15
2023-04-07T21:10:26.016Z,100010.75
2023-04-07T21:13:52.300Z,100008.38
2023-04-07T21:16:53.021Z,100008.32
2023-04-07T21:19:21.318Z,100013.50
2023-04-07T21:21:49.553Z,100005.91
2023-04-07T21:24:18.446Z,100008.68
2023-04-07T21:26:46.827Z,100008.35
2023-04-07T21:29:15.144Z,100006.61
2023-04-07T21:31:48.637Z,100005.40
2023-04-07T21:34:17.688Z,100000.86
2023-04-07T21:36:48.880Z,100002.35
2023-04-07T21:39:17.263Z,100006.96
2023-04-07T21:41:45.933Z,100008.19
2023-04-07T21:44:15.048Z,100000.96
2023-04-07T21:46:47.579Z,99995.58
2023-04-07T21:49:18.197Z,99994.49
2023-04-07T21:51:46.467Z,99990.12
2023-04-07T21:54:15.199Z,99993.59
2023-04-07T21:56:43.600Z,99991.86
2023-04-07T21:59:11.875Z,99990.82
2023-04-07T22:01:40.590Z,99985.05
2023-04-07T22:04:09.588Z,99986.04
2023-04-07T22:06:37.925Z,99983.80
2023-04-07T22:09:07.748Z,99983.60
2023-04-07T22:11:36.329Z,99982.03
2023-04-07T22:14:04.635Z,99985.62
2023-04-07T22:16:33.045Z,99987.16
2023-04-07T22:19:01.390Z,99984.36
2023-04-07T22:21:30.940Z,99986.61
2023-04-07T22:23:59.379Z,99984.70
2023-04-07T22:26:27.747Z,99992.52
2023-04-07T22:28:56.237Z,99990.77
2023-04-07T22:31:24.442Z,99987.77
2023-04-07T22:33:53.129Z,99995.20
2023-04-07T22:36:21.333Z,99993.29
2023-04-07T22:38:49.896Z,99991.89
2023-04-07T22:41:18.550Z,99990.67
2023-04-07T22:43:47.216Z,99992.00
2023-04-07T22:46:17.913Z,99995.61
2023-04-07T22:48:46.144Z,99993.69
2023-04-07T22:51:14.477Z,99993.17
2023-04-07T22:53:42.751Z,99990.40
2023-04-07T22:56:11.512Z,99997.88
2023-04-07T22:58:39.846Z,100000.92
2023-04-07T23:01:08.473Z,100003.64
2023-04-07T23:03:46.209Z,100007.43
2023-04-07T23:06:14.578Z,100007.59
2023-04-07T23:08:50.626Z,100008.61
2023-04-07T23:11:28.178Z,100010.43
2023-04-07T23:13:56.516Z,100010.06
2023-04-07T23:16:24.635Z,100005.51
2023-04-07T23:18:53.398Z,100009.30
2023-04-07T23:21:21.740Z,100005.64
2023-04-07T23:23:59.930Z,100006.15
2023-04-07T23:26:28.695Z,100006.48
2023-04-07T23:28:57.008Z,100001.61
2023-04-07T23:31:56.872Z,99997.73
2023-04-07T23:34:25.495Z,100001.34
2023-04-07T23:37:12.824Z,99999.45
2023-04-07T23:39:41.347Z,99998.91
2023-04-07T23:42:10.057Z,99999.75
2023-04-07T23:44:40.832Z,99998.52
2023-04-07T23:47:09.254Z,100000.40
2023-04-07T23:49:57.446Z,99997.92
2023-04-07T23:52:26.012Z,99996.16
2023-04-07T23:54:54.175Z,99996.62
2023-04-07T23:57:25.402Z,99999.00
2023-04-07T23:59:53.644Z,100000.94
